Time;durP1;ratioP1;P1;durP2;ratioP2;P2;SDS_P1;SDS_P2;PMS_P1;PMS_P2;Temp;Humidity;BMP_temperature;BMP_pressure;BME280_temperature;BME280_humidity;BME280_pressure;Samples;Min_cycle;Max_cycle;Signal;HPM_P1;HPM_P2
2023/02/14 00:00:18;;;;;;;;;;;;;;;1.17;60.30;94484.91;2057556;69;20140;-78
2023/02/14 00:02:47;;;;;;;;;;;;;;;1.16;60.54;94486.19;2057843;69;20516;-78
2023/02/14 00:05:14;;;;;;;;;;;;;;;1.04;60.82;94481.88;2057618;69;20081;-77
2023/02/14 00:07:39;;;;;;;;;;;;;;;1.05;60.30;94483.41;2059038;69;20072;-76
2023/02/14 00:10:05;;;;;;;;;;;;;;;1.15;60.12;94493.75;2057674;69;20516;-77
2023/02/14 00:12:31;;;;;;;;;;;;;;;0.99;60.65;94484.16;2057336;69;20082;-77
2023/02/14 00:17:44;;;;;;;;;;;;;;;0.92;59.31;94492.25;2055388;69;20157;-78
2023/02/14 00:20:11;;;;;;;;;;;;;;;0.97;60.56;94491.50;2056847;69;20444;-76
2023/02/14 00:22:37;;;;;;;;;;;;;;;0.93;59.99;94491.75;2056443;69;20058;-78
2023/02/14 00:25:03;;;;;;;;;;;;;;;0.76;60.91;94488.94;2056436;69;20061;-78
2023/02/14 00:27:29;;;;;;;;;;;;;;;0.76;61.00;94490.97;2054782;69;20057;-77
2023/02/14 00:29:57;;;;;;;;;;;;;;;0.74;61.19;94476.88;2058011;69;20054;-77
2023/02/14 00:32:22;;;;;;;;;;;;;;;0.85;61.78;94479.63;2056542;69;20498;-76
2023/02/14 00:34:53;;;;;;;;;;;;;;;0.88;60.98;94472.34;2057090;69;20133;-78
2023/02/14 00:37:19;;;;;;;;;;;;;;;0.81;60.86;94487.44;2057328;69;20149;-77
2023/02/14 00:39:44;;;;;;;;;;;;;;;0.95;60.62;94489.19;2057871;69;20507;-77
2023/02/14 00:42:12;;;;;;;;;;;;;;;0.80;61.12;94480.38;2057508;69;20058;-78
2023/02/14 00:44:38;;;;;;;;;;;;;;;0.66;61.31;94484.16;2056494;69;20100;-77
2023/02/14 00:47:05;;;;;;;;;;;;;;;0.78;62.40;94471.84;2056637;69;20421;-77
2023/02/14 00:49:30;;;;;;;;;;;;;;;0.93;60.92;94482.66;2057894;69;20060;-78
2023/02/14 00:51:57;;;;;;;;;;;;;;;0.93;60.35;94488.22;2057770;69;20564;-78
2023/02/14 00:54:22;;;;;;;;;;;;;;;0.84;60.80;94475.34;2056710;69;20058;-77
2023/02/14 00:56:49;;;;;;;;;;;;;;;0.90;60.43;94480.88;2057364;69;20433;-74
2023/02/14 00:59:17;;;;;;;;;;;;;;;0.84;60.31;94486.44;2057500;69;20054;-76
2023/02/14 01:01:43;;;;;;;;;;;;;;;0.37;62.00;94485.41;2055993;69;20484;-77
2023/02/14 01:04:09;;;;;;;;;;;;;;;0.56;62.88;94485.69;2058117;69;20046;-76
2023/02/14 01:06:34;;;;;;;;;;;;;;;0.56;62.07;94486.44;2057414;69;20113;-77
2023/02/14 01:09:00;;;;;;;;;;;;;;;0.67;62.67;94469.03;2057924;69;20073;-78
2023/02/14 01:11:30;;;;;;;;;;;;;;;0.85;62.50;94478.88;2057781;69;20104;-78
2023/02/14 01:13:56;;;;;;;;;;;;;;;0.80;61.00;94482.41;2056868;69;20433;-77
2023/02/14 01:16:23;;;;;;;;;;;;;;;0.64;61.64;94486.66;2056440;69;20077;-76
2023/02/14 01:18:51;;;;;;;;;;;;;;;0.58;60.80;94478.34;2058272;69;20054;-77
2023/02/14 01:21:19;;;;;;;;;;;;;;;0.66;61.21;94482.16;2057563;69;20090;-77
2023/02/14 01:23:45;;;;;;;;;;;;;;;0.57;61.28;94470.56;2058558;69;20145;-76
2023/02/14 01:26:11;;;;;;;;;;;;;;;0.59;61.28;94470.78;2058378;69;20056;-75
2023/02/14 01:28:37;;;;;;;;;;;;;;;0.05;62.21;94474.50;2057708;69;20520;-77
2023/02/14 01:31:10;;;;;;;;;;;;;;;0.22;63.65;94468.97;2057177;69;20077;-77
2023/02/14 01:33:36;;;;;;;;;;;;;;;0.57;62.44;94467.78;2057376;69;20050;-78
2023/02/14 01:36:02;;;;;;;;;;;;;;;0.57;61.47;94465.00;2057776;69;20252;-77
2023/02/14 01:38:28;;;;;;;;;;;;;;;0.66;61.72;94459.22;2057596;69;20156;-76
2023/02/14 01:40:55;;;;;;;;;;;;;;;0.41;62.16;94463.72;2057871;69;20050;-77
2023/02/14 01:43:24;;;;;;;;;;;;;;;0.53;61.53;94456.94;2057591;69;20116;-76
2023/02/14 01:45:50;;;;;;;;;;;;;;;0.47;62.77;94451.41;2057126;69;20113;-76
2023/02/14 01:48:17;;;;;;;;;;;;;;;0.60;62.13;94458.47;2057764;69;20058;-75
2023/02/14 01:50:45;;;;;;;;;;;;;;;0.69;61.67;94461.75;2058319;69;20085;-75
2023/02/14 01:53:13;;;;;;;;;;;;;;;0.61;61.12;94452.41;2057472;69;20066;-75
2023/02/14 01:55:41;;;;;;;;;;;;;;;0.58;60.52;94449.88;2058003;69;20077;-79
2023/02/14 01:58:13;;;;;;;;;;;;;;;0.59;61.28;94452.16;2058089;69;20050;-77
2023/02/14 02:00:57;;;;;;;;;;;;;;;0.66;61.72;94451.66;2057213;69;20524;-78
2023/02/14 02:03:35;;;;;;;;;;;;;;;0.57;60.44;94456.69;2057583;69;20069;-77
2023/02/14 02:06:07;;;;;;;;;;;;;;;0.72;61.58;94457.19;2057217;69;20065;-79
2023/02/14 02:08:36;;;;;;;;;;;;;;;0.60;61.74;94456.47;2056969;69;20077;-78
2023/02/14 02:11:01;;;;;;;;;;;;;;;0.64;60.66;94448.66;2058150;69;20061;-78
2023/02/14 02:13:27;;;;;;;;;;;;;;;0.60;61.10;94452.94;2057783;69;20050;-78
2023/02/14 02:15:55;;;;;;;;;;;;;;;0.58;60.15;94456.19;2057040;69;20062;-77
2023/02/14 02:18:32;;;;;;;;;;;;;;;0.36;61.65;94454.16;2056849;69;20106;-77
2023/02/14 02:21:13;;;;;;;;;;;;;;;0.39;61.44;94453.16;2058373;69;20201;-78
2023/02/14 02:23:51;;;;;;;;;;;;;;;0.38;61.62;94448.13;2056663;69;20478;-77
2023/02/14 02:26:23;;;;;;;;;;;;;;;0.32;61.81;94447.34;2057967;69;20053;-78
2023/02/14 02:29:07;;;;;;;;;;;;;;;0.42;60.84;94441.06;2057034;69;20054;-78
2023/02/14 02:31:45;;;;;;;;;;;;;;;0.43;61.03;94439.81;2057011;69;20078;-78
2023/02/14 02:34:19;;;;;;;;;;;;;;;0.53;60.74;94442.34;2057107;69;20148;-78
2023/02/14 02:36:52;;;;;;;;;;;;;;;0.44;60.45;94438.53;2057042;69;20514;-78
2023/02/14 02:39:36;;;;;;;;;;;;;;;0.29;62.66;94438.03;2056716;69;20090;-78
2023/02/14 02:42:11;;;;;;;;;;;;;;;0.12;61.13;94442.78;2056346;69;20088;-77
2023/02/14 02:44:51;;;;;;;;;;;;;;;0.20;62.54;94435.50;2057539;69;20076;-78
2023/02/14 02:47:35;;;;;;;;;;;;;;;0.07;62.67;94430.44;2057612;69;20050;-78
2023/02/14 02:53:17;;;;;;;;;;;;;;;0.14;61.82;94432.72;2056747;69;20101;-75
2023/02/14 02:58:51;;;;;;;;;;;;;;;0.27;60.97;94445.31;2057630;69;20061;-77
2023/02/14 03:01:20;;;;;;;;;;;;;;;0.26;61.80;94450.09;2057902;69;20050;-77
2023/02/14 03:06:58;;;;;;;;;;;;;;;0.36;61.14;94451.38;2057623;69;20500;-77
2023/02/14 03:09:26;;;;;;;;;;;;;;;0.09;61.88;94450.09;2057166;69;20165;-77
2023/02/14 03:11:53;;;;;;;;;;;;;;;0.09;61.41;94450.09;2058388;69;20101;-74
2023/02/14 03:14:22;;;;;;;;;;;;;;;0.05;61.81;94451.59;2057677;69;20478;-77
2023/02/14 03:17:00;;;;;;;;;;;;;;;0.15;61.38;94455.63;2058211;69;20090;-76
2023/02/14 03:22:50;;;;;;;;;;;;;;;0.08;61.70;94456.13;2057916;69;20056;-77
2023/02/14 03:25:23;;;;;;;;;;;;;;;0.07;61.62;94465.69;2058256;69;20600;-78
2023/02/14 03:28:06;;;;;;;;;;;;;;;-0.07;63.18;94462.63;2058569;69;20065;-77
2023/02/14 03:30:41;;;;;;;;;;;;;;;0.03;61.24;94465.91;2057150;69;20659;-76
2023/02/14 03:33:15;;;;;;;;;;;;;;;-0.13;61.68;94467.41;2056882;69;20066;-78
2023/02/14 03:35:54;;;;;;;;;;;;;;;-0.09;61.95;94467.13;2058240;69;20058;-78
2023/02/14 03:38:23;;;;;;;;;;;;;;;-0.17;61.34;94471.66;2055879;69;20085;-78
2023/02/14 03:41:01;;;;;;;;;;;;;;;-0.34;61.99;94468.81;2057669;69;20054;-77
2023/02/14 03:43:30;;;;;;;;;;;;;;;-0.22;62.10;94472.41;2057930;69;20053;-77
2023/02/14 03:46:09;;;;;;;;;;;;;;;-0.24;61.54;94474.91;2058064;69;20053;-79
2023/02/14 03:48:39;;;;;;;;;;;;;;;-0.23;62.23;94460.53;2058540;69;20147;-79
2023/02/14 03:51:07;;;;;;;;;;;;;;;-0.10;62.73;94458.06;2057273;69;20417;-78
2023/02/14 03:53:35;;;;;;;;;;;;;;;-0.34;62.17;94454.97;2058213;69;20069;-78
2023/02/14 03:56:10;;;;;;;;;;;;;;;-0.26;61.91;94458.78;2057402;69;20145;-77
2023/02/14 03:58:40;;;;;;;;;;;;;;;-0.22;62.77;94456.53;2057347;69;20050;-78
2023/02/14 04:01:09;;;;;;;;;;;;;;;-0.24;62.34;94447.22;2057661;69;20045;-79
2023/02/14 04:03:37;;;;;;;;;;;;;;;-0.21;61.55;94452.50;2058193;69;20167;-76
2023/02/14 04:06:03;;;;;;;;;;;;;;;-0.14;62.78;94448.50;2058338;69;20535;-76
2023/02/14 04:08:29;;;;;;;;;;;;;;;-0.10;61.36;94449.00;2054654;69;20047;-76
2023/02/14 04:10:56;;;;;;;;;;;;;;;-0.18;62.47;94445.22;2057528;69;20492;-78
2023/02/14 04:13:21;;;;;;;;;;;;;;;-0.16;62.34;94453.78;2057708;69;20474;-77
2023/02/14 04:15:47;;;;;;;;;;;;;;;-0.28;63.21;94450.97;2057049;69;20046;-76
2023/02/14 04:20:57;;;;;;;;;;;;;;;-0.33;61.96;94440.63;2057789;69;20065;-77
2023/02/14 04:23:22;;;;;;;;;;;;;;;-0.22;61.98;94445.47;2057965;69;20074;-78
2023/02/14 04:25:48;;;;;;;;;;;;;;;-0.23;62.21;94441.16;2057195;69;20119;-76
2023/02/14 04:28:14;;;;;;;;;;;;;;;-0.18;62.25;94447.97;2054665;69;20066;-76
2023/02/14 04:30:39;;;;;;;;;;;;;;;-0.15;61.29;94441.44;2057854;69;20058;-77
2023/02/14 04:33:06;;;;;;;;;;;;;;;-0.13;61.83;94450.03;2057802;69;20062;-78
2023/02/14 04:35:32;;;;;;;;;;;;;;;-0.17;61.22;94447.50;2058412;69;20572;-78
2023/02/14 04:37:57;;;;;;;;;;;;;;;-0.18;61.54;94445.22;2057252;69;20081;-78
2023/02/14 04:40:23;;;;;;;;;;;;;;;-0.26;61.49;94442.94;2058482;69;20099;-78
2023/02/14 04:42:49;;;;;;;;;;;;;;;-0.20;61.44;94444.97;2057883;69;20050;-76
2023/02/14 04:45:14;;;;;;;;;;;;;;;-0.17;61.74;94441.97;2058641;69;20094;-78
2023/02/14 04:47:40;;;;;;;;;;;;;;;-0.27;61.87;94443.44;2056743;69;20589;-78
2023/02/14 04:50:07;;;;;;;;;;;;;;;-0.26;61.26;94442.19;2057499;69;20080;-77
2023/02/14 04:52:33;;;;;;;;;;;;;;;-0.27;60.89;94448.97;2056947;69;20590;-77
2023/02/14 04:54:58;;;;;;;;;;;;;;;-0.20;60.94;94437.41;2058070;69;20146;-77
2023/02/14 04:57:23;;;;;;;;;;;;;;;-0.33;61.12;94442.66;2058049;69;20161;-77
2023/02/14 04:59:49;;;;;;;;;;;;;;;-0.18;61.73;94440.47;2057654;69;20120;-77
2023/02/14 05:02:14;;;;;;;;;;;;;;;-0.21;61.24;94438.69;2057747;69;20478;-78
2023/02/14 05:04:40;;;;;;;;;;;;;;;-0.38;61.68;94444.16;2056749;69;20078;-74
2023/02/14 05:07:05;;;;;;;;;;;;;;;-0.26;61.29;94442.94;2058410;69;20053;-74
2023/02/14 05:09:31;;;;;;;;;;;;;;;-0.59;61.56;94440.81;2056467;69;20488;-75
2023/02/14 05:11:56;;;;;;;;;;;;;;;-0.48;61.56;94439.31;2057889;69;20165;-78
2023/02/14 05:14:22;;;;;;;;;;;;;;;-0.50;61.15;94437.06;2058542;69;20077;-75
2023/02/14 05:16:47;;;;;;;;;;;;;;;-0.37;61.27;94426.28;2058417;69;20133;-76
2023/02/14 05:19:13;;;;;;;;;;;;;;;-0.54;61.80;94433.78;2056993;69;20105;-78
2023/02/14 05:21:39;;;;;;;;;;;;;;;-0.41;61.71;94438.84;2058279;69;20068;-77
2023/02/14 05:24:05;;;;;;;;;;;;;;;-0.37;60.74;94434.56;2058121;69;20468;-77
2023/02/14 05:26:30;;;;;;;;;;;;;;;-0.51;61.83;94435.53;2057463;69;20454;-77
2023/02/14 05:28:56;;;;;;;;;;;;;;;-0.49;63.28;94435.81;2058171;69;20054;-77
2023/02/14 05:31:22;;;;;;;;;;;;;;;-0.38;61.65;94440.63;2057494;69;20050;-78
2023/02/14 05:33:47;;;;;;;;;;;;;;;-0.41;61.41;94438.84;2057718;69;20506;-79
2023/02/14 05:36:13;;;;;;;;;;;;;;;-0.37;61.57;94442.13;2057033;69;20052;-78
2023/02/14 05:38:39;;;;;;;;;;;;;;;-0.70;62.36;94446.25;2057093;69;20502;-78
2023/02/14 05:41:04;;;;;;;;;;;;;;;-0.77;62.12;94443.97;2057568;69;20497;-78
2023/02/14 05:43:30;;;;;;;;;;;;;;;-0.72;62.37;94450.78;2056456;69;20141;-78
2023/02/14 05:45:55;;;;;;;;;;;;;;;-0.64;61.89;94449.84;2057450;69;20050;-77
2023/02/14 05:48:21;;;;;;;;;;;;;;;-0.75;61.49;94449.75;2058289;69;20121;-74
2023/02/14 05:50:47;;;;;;;;;;;;;;;-0.73;61.93;94454.78;2056860;69;20425;-73
2023/02/14 05:53:12;;;;;;;;;;;;;;;-0.80;62.99;94450.50;2057531;69;20093;-78
2023/02/14 05:55:40;;;;;;;;;;;;;;;-0.75;62.20;94454.53;2057216;69;20056;-76
2023/02/14 05:58:06;;;;;;;;;;;;;;;-0.59;62.38;94457.41;2057098;69;20125;-75
2023/02/14 06:00:33;;;;;;;;;;;;;;;-0.63;62.73;94462.41;2056776;69;20125;-74
2023/02/14 06:02:59;;;;;;;;;;;;;;;-0.67;62.23;94455.59;2058611;69;20124;-78
2023/02/14 06:05:24;;;;;;;;;;;;;;;-0.73;62.38;94463.88;2057525;69;20066;-77
2023/02/14 06:07:50;;;;;;;;;;;;;;;-0.76;62.84;94459.31;2057593;69;20053;-73
2023/02/14 06:10:19;;;;;;;;;;;;;;;-0.69;62.88;94463.63;2056562;69;20082;-77
2023/02/14 06:12:45;;;;;;;;;;;;;;;-0.71;62.76;94468.91;2057988;69;20494;-78
2023/02/14 06:15:13;;;;;;;;;;;;;;;-0.74;62.03;94464.34;2056331;69;20051;-76
2023/02/14 06:17:39;;;;;;;;;;;;;;;-0.60;62.30;94468.94;2058293;69;20145;-74
2023/02/14 06:20:05;;;;;;;;;;;;;;;-0.77;62.04;94472.41;2057503;69;20150;-75
2023/02/14 06:22:30;;;;;;;;;;;;;;;-0.86;62.65;94475.34;2058229;69;20112;-75
2023/02/14 06:24:56;;;;;;;;;;;;;;;-0.82;62.15;94483.44;2057704;69;21137;-77
2023/02/14 06:27:21;;;;;;;;;;;;;;;-0.87;61.51;94484.91;2056707;69;20050;-77
2023/02/14 06:29:47;;;;;;;;;;;;;;;-0.99;62.57;94479.78;2056886;69;20133;-79
2023/02/14 06:32:13;;;;;;;;;;;;;;;-0.79;63.03;94477.66;2056712;69;20074;-76
2023/02/14 06:34:39;;;;;;;;;;;;;;;-0.86;62.37;94489.19;2058227;69;20422;-76
2023/02/14 06:37:05;;;;;;;;;;;;;;;-0.77;62.54;94480.69;2057692;69;20133;-76
2023/02/14 06:39:31;;;;;;;;;;;;;;;-0.72;62.56;94481.22;2058028;69;20168;-78
2023/02/14 06:41:56;;;;;;;;;;;;;;;-0.60;62.22;94482.78;2056911;69;20042;-77
2023/02/14 06:44:21;;;;;;;;;;;;;;;-0.74;62.74;94481.69;2057551;69;20081;-77
2023/02/14 06:46:47;;;;;;;;;;;;;;;-0.66;62.34;94476.47;2056342;69;20124;-73
2023/02/14 06:49:13;;;;;;;;;;;;;;;-0.65;61.97;94477.97;2056602;69;20117;-76
2023/02/14 06:51:38;;;;;;;;;;;;;;;-0.84;62.32;94492.19;2057128;69;20045;-72
2023/02/14 06:54:03;;;;;;;;;;;;;;;-0.69;62.47;94494.78;2057595;69;20136;-73
2023/02/14 06:56:29;;;;;;;;;;;;;;;-0.60;61.87;94483.53;2057547;69;20108;-77
2023/02/14 06:58:54;;;;;;;;;;;;;;;-0.78;62.43;94486.69;2057746;69;20090;-76
2023/02/14 07:01:23;;;;;;;;;;;;;;;-0.74;62.60;94492.00;2056807;69;20042;-80
2023/02/14 07:03:49;;;;;;;;;;;;;;;-0.67;62.27;94491.56;2057170;69;20074;-74
2023/02/14 07:06:15;;;;;;;;;;;;;;;-0.65;62.37;94494.56;2057157;69;21876;-74
2023/02/14 07:08:41;;;;;;;;;;;;;;;-0.59;61.55;94485.06;2056864;69;20136;-75
2023/02/14 07:11:07;;;;;;;;;;;;;;;-0.68;62.15;94492.81;2056647;69;20101;-74
2023/02/14 07:13:32;;;;;;;;;;;;;;;-0.62;62.55;94480.50;2057108;69;20077;-74
2023/02/14 07:15:58;;;;;;;;;;;;;;;-0.50;61.75;94481.34;2057299;69;20099;-78
2023/02/14 07:18:23;;;;;;;;;;;;;;;-0.53;61.41;94476.78;2057233;69;20053;-74
2023/02/14 07:20:49;;;;;;;;;;;;;;;-0.45;61.70;94477.84;2057291;69;20149;-75
2023/02/14 07:23:14;;;;;;;;;;;;;;;-0.52;62.24;94481.06;2057561;69;20050;-72
2023/02/14 07:25:40;;;;;;;;;;;;;;;-0.38;61.59;94477.34;2058304;69;20060;-74
2023/02/14 07:28:05;;;;;;;;;;;;;;;-0.31;60.67;94468.59;2058464;69;20050;-75
2023/02/14 07:30:31;;;;;;;;;;;;;;;-0.28;60.40;94472.34;2058417;69;20413;-73
2023/02/14 07:32:56;;;;;;;;;;;;;;;-0.30;60.55;94466.56;2058098;69;20110;-75
2023/02/14 07:35:22;;;;;;;;;;;;;;;-0.34;60.03;94461.28;2058384;69;20497;-74
2023/02/14 07:37:49;;;;;;;;;;;;;;;-0.27;60.80;94469.09;2058365;69;20401;-73
2023/02/14 07:40:14;;;;;;;;;;;;;;;-0.43;61.22;94469.78;2058194;69;20073;-73
2023/02/14 07:42:40;;;;;;;;;;;;;;;-0.27;60.82;94468.34;2058689;69;20482;-76
2023/02/14 07:45:06;;;;;;;;;;;;;;;-0.21;60.67;94473.91;2058433;69;20568;-74
2023/02/14 07:47:31;;;;;;;;;;;;;;;-0.21;60.60;94468.38;2058468;69;20491;-80
2023/02/14 07:49:57;;;;;;;;;;;;;;;-0.23;60.47;94457.78;2058408;69;20058;-82
2023/02/14 07:52:22;;;;;;;;;;;;;;;-0.27;60.79;94462.81;2058580;69;20077;-72
2023/02/14 07:54:48;;;;;;;;;;;;;;;-0.24;61.08;94463.81;2058220;69;20154;-73
2023/02/14 07:57:13;;;;;;;;;;;;;;;-0.23;61.19;94460.53;2058346;69;20417;-73
2023/02/14 07:59:39;;;;;;;;;;;;;;;-0.17;60.57;94446.75;2058387;69;20160;-76
2023/02/14 08:02:04;;;;;;;;;;;;;;;-0.21;60.25;94455.28;2058562;69;20570;-76
2023/02/14 08:04:30;;;;;;;;;;;;;;;-0.17;60.65;94446.75;2058455;69;20491;-74
2023/02/14 08:06:55;;;;;;;;;;;;;;;-0.08;60.23;94440.97;2058385;69;20046;-75
2023/02/14 08:09:23;;;;;;;;;;;;;;;-0.07;60.74;94442.50;2058367;69;20058;-75
2023/02/14 08:14:37;;;;;;;;;;;;;;;-0.11;60.45;94445.50;2058286;69;20142;-77
2023/02/14 08:17:02;;;;;;;;;;;;;;;0.03;60.60;94443.00;2058466;69;20536;-77
2023/02/14 08:19:28;;;;;;;;;;;;;;;0.09;60.69;94429.94;2057730;69;20567;-79
2023/02/14 08:21:53;;;;;;;;;;;;;;;0.07;60.56;94438.00;2058300;69;20045;-81
2023/02/14 08:24:19;;;;;;;;;;;;;;;0.16;60.22;94426.69;2058302;69;20137;-81
2023/02/14 08:26:44;;;;;;;;;;;;;;;0.05;60.23;94432.22;2058293;69;20050;-82
2023/02/14 08:29:10;;;;;;;;;;;;;;;0.06;60.89;94425.41;2058305;69;20482;-74
2023/02/14 08:31:36;;;;;;;;;;;;;;;0.14;60.32;94418.88;2058343;69;20050;-78
2023/02/14 08:34:02;;;;;;;;;;;;;;;0.21;60.49;94415.59;2058412;69;20502;-74
2023/02/14 08:36:27;;;;;;;;;;;;;;;0.38;59.86;94417.66;2058355;69;20057;-73
2023/02/14 08:38:54;;;;;;;;;;;;;;;0.94;60.56;94420.38;2058331;69;20073;-75
2023/02/14 08:41:19;;;;;;;;;;;;;;;1.23;59.19;94416.28;2058516;69;20125;-77
2023/02/14 08:43:46;;;;;;;;;;;;;;;1.91;59.45;94414.00;2058736;69;20481;-76
2023/02/14 08:46:13;;;;;;;;;;;;;;;2.53;58.77;94411.59;2058902;69;20112;-75
2023/02/14 08:48:40;;;;;;;;;;;;;;;2.84;56.55;94417.91;2058891;69;20042;-76
2023/02/14 08:51:06;;;;;;;;;;;;;;;3.35;55.30;94412.63;2059417;69;20544;-78
2023/02/14 08:53:32;;;;;;;;;;;;;;;3.77;54.47;94409.09;2059118;69;20200;-78
2023/02/14 08:56:01;;;;;;;;;;;;;;;4.20;53.70;94413.84;2059093;69;20141;-80
2023/02/14 08:58:27;;;;;;;;;;;;;;;4.60;53.87;94402.88;2058894;69;20054;-79
2023/02/14 09:00:54;;;;;;;;;;;;;;;4.85;50.49;94403.50;2058832;69;20468;-79
2023/02/14 09:03:20;;;;;;;;;;;;;;;5.41;50.85;94404.59;2058704;69;20140;-77
2023/02/14 09:05:45;;;;;;;;;;;;;;;5.71;50.68;94407.03;2058172;69;20482;-76
2023/02/14 09:08:10;;;;;;;;;;;;;;;6.31;46.91;94407.06;2058711;69;20047;-73
2023/02/14 09:10:36;;;;;;;;;;;;;;;6.58;48.23;94407.75;2058835;69;20090;-77
2023/02/14 09:13:01;;;;;;;;;;;;;;;6.93;47.33;94402.13;2058652;69;20092;-78
2023/02/14 09:15:27;;;;;;;;;;;;;;;7.10;47.13;94397.63;2058679;69;20094;-78
2023/02/14 09:17:52;;;;;;;;;;;;;;;7.56;46.37;94400.75;2058604;69;20103;-80
2023/02/14 09:20:19;;;;;;;;;;;;;;;7.35;43.73;94397.22;2058880;69;20057;-80
2023/02/14 09:22:44;;;;;;;;;;;;;;;7.60;44.39;94389.91;2058832;69;20046;-76
2023/02/14 09:25:10;;;;;;;;;;;;;;;8.35;44.09;94390.13;2058765;69;20061;-82
2023/02/14 09:27:35;;;;;;;;;;;;;;;8.98;43.44;94384.09;2058773;69;20053;-80
2023/02/14 09:30:01;;;;;;;;;;;;;;;9.19;42.27;94389.53;2058882;69;20506;-80
2023/02/14 09:32:27;;;;;;;;;;;;;;;9.21;40.17;94386.91;2058820;69;20045;-79
2023/02/14 09:40:21;;;;;;;;;;;;;;;9.92;38.32;94379.34;2058238;69;20046;-79
2023/02/14 09:42:56;;;;;;;;;;;;;;;10.31;38.39;94383.56;2058665;69;20074;-78
2023/02/14 09:45:24;;;;;;;;;;;;;;;10.76;36.92;94378.25;2058786;69;20054;-75
2023/02/14 09:47:51;;;;;;;;;;;;;;;11.22;37.06;94377.94;2058696;69;20144;-73
2023/02/14 09:50:26;;;;;;;;;;;;;;;11.26;36.15;94381.88;2058650;69;20062;-77
2023/02/14 09:52:56;;;;;;;;;;;;;;;11.39;35.97;94378.75;2058680;69;20076;-75
2023/02/14 09:55:23;;;;;;;;;;;;;;;11.76;36.40;94369.78;2058705;69;20050;-79
2023/02/14 09:58:07;;;;;;;;;;;;;;;12.24;34.96;94369.50;2058872;69;20637;-75
2023/02/14 10:00:39;;;;;;;;;;;;;;;12.06;33.22;94369.50;2058574;69;20139;-73
2023/02/14 10:03:04;;;;;;;;;;;;;;;13.08;32.86;94363.47;2058635;69;20052;-76
2023/02/14 10:05:36;;;;;;;;;;;;;;;13.47;32.28;94355.91;2058628;69;20141;-74
2023/02/14 10:08:16;;;;;;;;;;;;;;;13.09;31.99;94350.81;2058615;69;20133;-74
2023/02/14 10:10:42;;;;;;;;;;;;;;;13.26;31.49;94349.28;2058737;69;20100;-74
2023/02/14 10:13:17;;;;;;;;;;;;;;;13.48;30.12;94346.09;2058650;69;20116;-74
2023/02/14 10:15:45;;;;;;;;;;;;;;;14.23;29.14;94345.28;2058665;69;20116;-75
2023/02/14 10:18:21;;;;;;;;;;;;;;;14.63;28.37;94343.94;2058590;69;20125;-73
2023/02/14 10:20:49;;;;;;;;;;;;;;;14.15;28.43;94329.78;2058684;69;20153;-73
2023/02/14 10:23:39;;;;;;;;;;;;;;;15.18;26.99;94333.66;2058487;69;20054;-74
2023/02/14 10:26:05;;;;;;;;;;;;;;;14.67;28.04;94317.97;2058534;69;20069;-76
2023/02/14 10:28:42;;;;;;;;;;;;;;;15.31;27.85;94312.53;2058547;69;20455;-74
2023/02/14 10:31:14;;;;;;;;;;;;;;;16.30;26.78;94317.72;2058625;69;20053;-73
2023/02/14 10:33:41;;;;;;;;;;;;;;;15.80;25.76;94317.97;2058498;69;20399;-73
2023/02/14 10:36:15;;;;;;;;;;;;;;;15.79;26.12;94307.97;2058599;69;20145;-74
2023/02/14 10:38:41;;;;;;;;;;;;;;;14.98;26.13;94307.44;2058598;69;20081;-76
2023/02/14 10:41:12;;;;;;;;;;;;;;;16.10;25.98;94305.78;2058719;69;20120;-78
2023/02/14 10:43:47;;;;;;;;;;;;;;;17.30;25.30;94294.88;2058605;69;20053;-76
2023/02/14 10:46:36;;;;;;;;;;;;;;;17.13;24.18;94296.69;2058571;69;20491;-78
2023/02/14 10:49:20;;;;;;;;;;;;;;;16.69;24.13;94297.47;2058592;69;20149;-78
2023/02/14 10:51:50;;;;;;;;;;;;;;;17.90;23.34;94286.41;2058443;69;20050;-78
2023/02/14 10:54:20;;;;;;;;;;;;;;;19.20;22.34;94283.72;2058329;69;20142;-79
2023/02/14 10:56:54;;;;;;;;;;;;;;;18.93;22.38;94273.00;2058386;69;20076;-78
2023/02/14 10:59:26;;;;;;;;;;;;;;;18.83;21.48;94275.25;2057682;69;20156;-77
2023/02/14 11:01:52;;;;;;;;;;;;;;;19.36;21.65;94269.56;2057633;69;20046;-73
2023/02/14 11:04:20;;;;;;;;;;;;;;;18.78;23.08;94269.34;2058349;69;20049;-77
2023/02/14 11:06:48;;;;;;;;;;;;;;;19.07;21.59;94268.06;2058402;69;20049;-75
2023/02/14 11:09:13;;;;;;;;;;;;;;;20.63;20.91;94265.31;2058144;69;20080;-74
2023/02/14 11:11:42;;;;;;;;;;;;;;;22.44;20.50;94275.56;2058217;69;20045;-77
2023/02/14 11:14:18;;;;;;;;;;;;;;;23.57;19.41;94256.34;2058468;69;20217;-77
2023/02/14 11:16:43;;;;;;;;;;;;;;;24.32;17.43;94251.78;2057954;69;20077;-78
2023/02/14 11:19:13;;;;;;;;;;;;;;;22.20;19.18;94246.59;2057797;69;20062;-79
2023/02/14 11:21:39;;;;;;;;;;;;;;;22.98;18.98;94247.63;2058170;69;20489;-77
2023/02/14 11:24:15;;;;;;;;;;;;;;;25.36;17.52;94246.50;2058352;69;20129;-79
2023/02/14 11:26:43;;;;;;;;;;;;;;;26.69;15.29;94239.34;2057338;69;20088;-79
2023/02/14 11:29:13;;;;;;;;;;;;;;;27.09;15.00;94233.09;2058486;69;20049;-77
2023/02/14 11:31:40;;;;;;;;;;;;;;;28.36;15.43;94222.72;2058465;69;20046;-78
2023/02/14 11:34:22;;;;;;;;;;;;;;;30.07;14.50;94227.44;2058366;69;20146;-77
2023/02/14 11:36:48;;;;;;;;;;;;;;;28.38;14.26;94213.34;2058226;69;20231;-76
2023/02/14 11:39:24;;;;;;;;;;;;;;;28.57;12.96;94215.13;2058209;69;20169;-78
2023/02/14 11:41:51;;;;;;;;;;;;;;;30.02;14.35;94210.69;2057962;69;20054;-79
2023/02/14 11:44:21;;;;;;;;;;;;;;;28.97;14.28;94204.91;2058491;69;20115;-79
2023/02/14 11:46:50;;;;;;;;;;;;;;;30.68;12.67;94206.28;2057585;69;20054;-77
2023/02/14 11:49:28;;;;;;;;;;;;;;;31.64;13.25;94201.88;2058214;69;20209;-78
2023/02/14 11:51:56;;;;;;;;;;;;;;;29.77;13.72;94192.97;2058189;69;20097;-78
2023/02/14 11:54:26;;;;;;;;;;;;;;;31.41;12.99;94198.13;2058255;69;20053;-80
2023/02/14 11:56:54;;;;;;;;;;;;;;;30.25;12.87;94194.25;2058376;69;20050;-79
2023/02/14 11:59:26;;;;;;;;;;;;;;;32.43;13.01;94186.88;2058348;69;20523;-79
2023/02/14 12:01:52;;;;;;;;;;;;;;;33.44;11.67;94184.72;2058145;69;20085;-80
2023/02/14 12:04:38;;;;;;;;;;;;;;;34.23;11.50;94186.63;2058190;69;20050;-81
2023/02/14 12:07:18;;;;;;;;;;;;;;;33.99;11.68;94175.78;2058137;69;20069;-78
2023/02/14 12:09:45;;;;;;;;;;;;;;;33.45;10.80;94169.41;2057985;69;20092;-76
2023/02/14 12:12:15;;;;;;;;;;;;;;;33.96;10.72;94172.16;2058058;69;20124;-79
2023/02/14 12:14:40;;;;;;;;;;;;;;;31.55;11.54;94163.28;2057511;69;20124;-78
2023/02/14 12:17:14;;;;;;;;;;;;;;;31.77;11.62;94159.72;2058175;69;20058;-77
2023/02/14 12:19:40;;;;;;;;;;;;;;;32.99;11.76;94155.56;2058245;69;20046;-79
2023/02/14 12:22:06;;;;;;;;;;;;;;;32.91;11.57;94147.59;2058552;69;20048;-78
2023/02/14 12:24:36;;;;;;;;;;;;;;;31.24;12.17;94147.09;2058385;69;20163;-78
2023/02/14 12:27:02;;;;;;;;;;;;;;;32.01;12.20;94143.81;2055462;69;20050;-79
2023/02/14 12:29:27;;;;;;;;;;;;;;;32.99;10.62;94130.09;2055431;70;20479;-79
2023/02/14 12:31:55;;;;;;;;;;;;;;;33.01;11.39;94135.16;2055303;69;20113;-78
2023/02/14 12:34:21;;;;;;;;;;;;;;;32.06;10.56;94125.63;2055245;69;20073;-77
2023/02/14 12:36:46;;;;;;;;;;;;;;;34.14;10.59;94128.22;2058739;69;20465;-78
2023/02/14 12:39:12;;;;;;;;;;;;;;;34.95;9.53;94126.16;2058519;69;20116;-79
2023/02/14 12:41:58;;;;;;;;;;;;;;;36.32;9.63;94119.44;2058750;69;20073;-79
2023/02/14 12:44:24;;;;;;;;;;;;;;;35.66;9.60;94113.00;2058589;69;20066;-79
2023/02/14 12:46:58;;;;;;;;;;;;;;;34.77;10.00;94102.91;2058686;69;20042;-79
2023/02/14 12:49:24;;;;;;;;;;;;;;;35.16;9.96;94114.28;2058370;69;21420;-77
2023/02/14 12:51:49;;;;;;;;;;;;;;;35.87;9.29;94107.59;2058591;69;20566;-78
2023/02/14 12:54:34;;;;;;;;;;;;;;;33.50;10.05;94100.78;2058504;69;20112;-78
2023/02/14 12:57:38;;;;;;;;;;;;;;;34.96;9.93;94098.41;2058712;69;20062;-78
2023/02/14 13:00:11;;;;;;;;;;;;;;;32.05;11.25;94083.38;2047207;70;20177;-78
2023/02/14 13:02:55;;;;;;;;;;;;;;;26.52;13.81;94081.53;2047326;70;20051;-78
2023/02/14 13:05:30;;;;;;;;;;;;;;;25.12;14.80;94070.75;2047769;70;20562;-78
2023/02/14 13:08:04;;;;;;;;;;;;;;;24.95;15.14;94065.91;2047709;70;20051;-78
2023/02/14 13:10:36;;;;;;;;;;;;;;;25.04;15.76;94064.72;2047241;70;20097;-78
2023/02/14 13:13:05;;;;;;;;;;;;;;;23.15;15.44;94056.53;2049671;70;20067;-76
2023/02/14 13:15:30;;;;;;;;;;;;;;;21.52;17.31;94045.25;2050778;70;20480;-77
2023/02/14 13:18:02;;;;;;;;;;;;;;;19.47;19.38;94048.81;2047051;70;20165;-77
2023/02/14 13:20:46;;;;;;;;;;;;;;;20.75;18.63;94034.06;2047543;70;20071;-78
2023/02/14 13:23:18;;;;;;;;;;;;;;;26.25;15.29;94033.97;2047404;70;20058;-78